Time,TemperatureF,DewpointF,PressureIn,WindDirection,WindDirectionDegrees,WindSpeedMPH,WindSpeedGustMPH,Humidity,HourlyPrecipIn,Conditions,Clouds,dailyrainin,SoftwareType,DateUTC
2013-03-10 00:00:00,38.5,37.2,30.28,ESE,110,0.0,0.0,95,0.00,,,0.00,LWC V2.00 B2112,2013-03-10 08:00:00,
2013-03-10 00:05:00,38.4,37.1,30.28,ESE,110,0.0,0.0,95,0.00,,,0.00,LWC V2.00 B2112,2013-03-10 08:05:00,
2013-03-10 00:10:00,38.2,36.9,30.28,ESE,110,0.0,0.0,95,0.00,,,0.00,LWC V2.00 B2112,2013-03-10 08:10:00,
2013-03-10 00:15:00,37.9,36.6,30.28,ESE,110,0.0,0.0,95,0.00,,,0.00,LWC V2.00 B2112,2013-03-10 08:15:00,
2013-03-10 00:20:00,37.9,36.6,30.28,ESE,110,0.0,0.0,95,0.00,,,0.00,LWC V2.00 B2112,2013-03-10 08:20:00,
2013-03-10 00:25:00,38.1,37.1,30.29,ESE,110,0.0,0.0,96,0.00,,,0.00,LWC V2.00 B2112,2013-03-10 08:25:00,
2013-03-10 00:30:00,38.1,37.1,30.29,ESE,110,0.0,0.0,96,0.00,,,0.00,LWC V2.00 B2112,2013-03-10 08:30:00,
2013-03-10 00:35:00,38.3,37.3,30.29,ESE,110,0.0,0.0,96,0.00,,,0.00,LWC V2.00 B2112,2013-03-10 08:35:00,
2013-03-10 00:40:00,38.5,37.5,30.28,ESE,110,0.0,0.0,96,0.00,,,0.00,LWC V2.00 B2112,2013-03-10 08:40:00,
2013-03-10 00:45:00,38.5,37.5,30.29,ESE,110,0.0,0.0,96,0.00,,,0.00,LWC V2.00 B2112,2013-03-10 08:45:00,
2013-03-10 00:50:00,38.3,37.3,30.29,ESE,110,0.0,0.0,96,0.00,,,0.00,LWC V2.00 B2112,2013-03-10 08:50:00,
2013-03-10 00:55:00,38.3,37.3,30.30,ESE,110,0.0,0.0,96,0.00,,,0.00,LWC V2.00 B2112,2013-03-10 08:55:00,
2013-03-10 01:00:00,38.7,37.7,30.30,East,96,0.0,0.0,96,0.00,,,0.00,LWC V2.00 B2112,2013-03-10 09:00:00,
2013-03-10 01:10:00,38.1,37.1,30.29,North,0,0.0,0.0,96,0.00,,,0.00,LWC V2.00 B2112,2013-03-10 09:10:00,
2013-03-10 01:20:00,38.1,37.1,30.29,North,0,0.0,0.0,96,0.00,,,0.00,LWC V2.00 B2112,2013-03-10 09:20:00,
2013-03-10 01:30:00,38.1,37.1,30.29,North,0,0.0,0.0,96,0.00,,,0.00,LWC V2.00 B2112,2013-03-10 09:30:00,
2013-03-10 01:40:00,38.1,37.1,30.29,North,0,0.0,0.0,96,0.00,,,0.00,LWC V2.00 B2112,2013-03-10 09:40:00,
2013-03-10 01:50:00,38.1,37.1,30.29,North,0,0.0,0.0,96,0.00,,,0.00,LWC V2.00 B2112,2013-03-10 09:50:00,
2013-03-10 03:00:00,38.0,37.0,30.29,North,0,0.0,0.0,96,0.00,,,0.00,LWC V2.00 B2112,2013-03-10 10:00:00,
2013-03-10 03:10:00,38.0,37.0,30.29,North,0,0.0,0.0,96,0.00,,,0.00,LWC V2.00 B2112,2013-03-10 10:10:00,
2013-03-10 03:20:00,38.0,37.0,30.29,North,0,0.0,0.0,96,0.00,,,0.00,LWC V2.00 B2112,2013-03-10 10:20:00,
2013-03-10 03:30:00,38.6,37.6,30.29,North,0,0.0,0.0,96,0.00,,,0.00,LWC V2.00 B2112,2013-03-10 10:30:00,
2013-03-10 03:40:00,38.6,37.6,30.29,North,0,0.0,0.0,96,0.00,,,0.00,LWC V2.00 B2112,2013-03-10 10:40:00,
2013-03-10 03:50:00,38.6,37.6,30.29,North,0,0.0,0.0,96,0.00,,,0.00,LWC V2.00 B2112,2013-03-10 10:50:00,
2013-03-10 04:00:00,39.2,38.4,30.28,North,0,0.0,0.0,97,0.00,,,0.00,LWC V2.00 B2112,2013-03-10 11:00:00,
2013-03-10 04:10:00,39.2,38.4,30.28,North,0,0.0,0.0,97,0.00,,,0.00,LWC V2.00 B2112,2013-03-10 11:10:00,
2013-03-10 04:20:00,39.2,38.4,30.28,North,0,0.0,0.0,97,0.00,,,0.00,LWC V2.00 B2112,2013-03-10 11:20:00,
2013-03-10 04:30:00,39.0,38.0,30.27,North,0,0.0,0.0,96,0.00,,,0.00,LWC V2.00 B2112,2013-03-10 11:30:00,
2013-03-10 04:40:00,39.0,38.0,30.27,North,0,0.0,0.0,96,0.00,,,0.00,LWC V2.00 B2112,2013-03-10 11:40:00,
2013-03-10 04:50:00,39.0,38.0,30.27,North,0,0.0,0.0,96,0.00,,,0.00,LWC V2.00 B2112,2013-03-10 11:50:00,
2013-03-10 05:00:00,38.5,37.5,30.28,North,0,0.0,0.0,96,0.00,,,0.00,LWC V2.00 B2112,2013-03-10 12:00:00,
2013-03-10 05:10:00,38.5,37.5,30.28,North,0,0.0,0.0,96,0.00,,,0.00,LWC V2.00 B2112,2013-03-10 12:10:00,
2013-03-10 05:20:00,38.5,37.5,30.28,North,0,0.0,0.0,96,0.00,,,0.00,LWC V2.00 B2112,2013-03-10 12:20:00,
2013-03-10 05:30:00,38.6,37.6,30.28,North,0,0.0,0.0,96,0.00,,,0.00,LWC V2.00 B2112,2013-03-10 12:30:00,
2013-03-10 05:40:00,38.6,37.6,30.28,North,0,0.0,0.0,96,0.00,,,0.00,LWC V2.00 B2112,2013-03-10 12:40:00,
2013-03-10 05:50:00,38.6,37.6,30.28,North,0,0.0,0.0,96,0.00,,,0.00,LWC V2.00 B2112,2013-03-10 12:50:00,
2013-03-10 06:00:00,38.6,37.8,30.28,North,0,0.0,0.0,97,0.00,,,0.00,LWC V2.00 B2112,2013-03-10 13:00:00,
2013-03-10 06:10:00,38.6,37.8,30.28,North,0,0.0,0.0,97,0.00,,,0.00,LWC V2.00 B2112,2013-03-10 13:10:00,
2013-03-10 06:20:00,38.6,37.8,30.28,North,0,0.0,0.0,97,0.00,,,0.00,LWC V2.00 B2112,2013-03-10 13:20:00,
2013-03-10 06:30:00,38.0,37.0,30.28,North,0,0.0,0.0,96,0.00,,,0.00,LWC V2.00 B2112,2013-03-10 13:30:00,
2013-03-10 06:40:00,38.0,37.0,30.28,North,0,0.0,0.0,96,0.00,,,0.00,LWC V2.00 B2112,2013-03-10 13:40:00,
2013-03-10 06:50:00,38.0,37.0,30.28,North,0,0.0,0.0,96,0.00,,,0.00,LWC V2.00 B2112,2013-03-10 13:50:00,
2013-03-10 07:00:00,36.7,35.7,30.29,North,0,0.0,0.0,96,0.00,,,0.00,LWC V2.00 B2112,2013-03-10 14:00:00,
2013-03-10 07:10:00,36.7,35.7,30.29,North,0,0.0,0.0,96,0.00,,,0.00,LWC V2.00 B2112,2013-03-10 14:10:00,
2013-03-10 07:20:00,36.7,35.7,30.29,North,0,0.0,0.0,96,0.00,,,0.00,LWC V2.00 B2112,2013-03-10 14:20:00,
2013-03-10 07:30:00,36.6,35.8,30.29,North,0,0.0,0.0,97,0.00,,,0.00,LWC V2.00 B2112,2013-03-10 14:30:00,
2013-03-10 07:40:00,36.6,35.8,30.29,North,0,0.0,0.0,97,0.00,,,0.00,LWC V2.00 B2112,2013-03-10 14:40:00,
2013-03-10 07:50:00,36.6,35.8,30.29,North,0,0.0,0.0,97,0.00,,,0.00,LWC V2.00 B2112,2013-03-10 14:50:00,
2013-03-10 08:00:00,37.1,36.3,30.30,North,0,0.0,0.0,97,0.00,,,0.00,LWC V2.00 B2112,2013-03-10 15:00:00,
2013-03-10 08:10:00,37.1,36.3,30.30,North,0,0.0,0.0,97,0.00,,,0.00,LWC V2.00 B2112,2013-03-10 15:10:00,
2013-03-10 08:20:00,37.1,36.3,30.30,North,0,0.0,0.0,97,0.00,,,0.00,LWC V2.00 B2112,2013-03-10 15:20:00,
2013-03-10 08:30:00,38.5,37.7,30.30,North,0,0.0,0.0,97,0.00,,,0.00,LWC V2.00 B2112,2013-03-10 15:30:00,
2013-03-10 08:40:00,38.5,37.7,30.30,North,0,0.0,0.0,97,0.00,,,0.00,LWC V2.00 B2112,2013-03-10 15:40:00,
2013-03-10 08:50:00,38.5,37.7,30.30,North,0,0.0,0.0,97,0.00,,,0.00,LWC V2.00 B2112,2013-03-10 15:50:00,
2013-03-10 09:00:00,40.0,39.2,30.31,North,0,0.0,0.0,97,0.00,,,0.00,LWC V2.00 B2112,2013-03-10 16:00:00,
2013-03-10 09:10:00,40.0,39.2,30.31,North,0,0.0,0.0,97,0.00,,,0.00,LWC V2.00 B2112,2013-03-10 16:10:00,
2013-03-10 09:20:00,40.0,39.2,30.31,North,0,0.0,0.0,97,0.00,,,0.00,LWC V2.00 B2112,2013-03-10 16:20:00,
2013-03-10 09:30:00,43.0,42.2,30.32,North,0,0.0,0.0,97,0.00,,,0.00,LWC V2.00 B2112,2013-03-10 16:30:00,
2013-03-10 09:40:00,43.0,42.2,30.32,North,0,0.0,0.0,97,0.00,,,0.00,LWC V2.00 B2112,2013-03-10 16:40:00,
2013-03-10 09:50:00,43.0,42.2,30.32,North,0,0.0,0.0,97,0.00,,,0.00,LWC V2.00 B2112,2013-03-10 16:50:00,
2013-03-10 10:00:00,47.4,46.3,30.31,North,0,0.0,0.0,96,0.00,,,0.00,LWC V2.00 B2112,2013-03-10 17:00:00,
2013-03-10 10:10:00,47.4,46.3,30.31,North,0,0.0,0.0,96,0.00,,,0.00,LWC V2.00 B2112,2013-03-10 17:10:00,
2013-03-10 10:20:00,47.4,46.3,30.31,North,0,0.0,0.0,96,0.00,,,0.00,LWC V2.00 B2112,2013-03-10 17:20:00,
2013-03-10 10:35:00,51.8,49.3,30.30,ENE,67,2.0,2.0,91,0.00,,,0.00,LWC V2.00 B2112,2013-03-10 17:35:00,
2013-03-10 10:40:00,52.1,49.0,30.30,East,96,0.0,2.0,89,0.00,,,0.00,LWC V2.00 B2112,2013-03-10 17:40:00,
2013-03-10 10:45:00,52.0,48.6,30.30,East,88,0.0,0.0,88,0.00,,,0.00,LWC V2.00 B2112,2013-03-10 17:45:00,
2013-03-10 10:50:00,52.0,48.6,30.30,East,88,0.0,0.0,88,0.00,,,0.00,LWC V2.00 B2112,2013-03-10 17:50:00,
2013-03-10 10:54:00,51.9,48.5,30.31,East,87,0.0,0.0,88,0.00,,,0.00,LWC V2.00 B2112,2013-03-10 17:54:00,
2013-03-10 10:59:00,52.0,48.6,30.31,East,87,0.0,0.0,88,0.00,,,0.00,LWC V2.00 B2112,2013-03-10 17:59:00,
2013-03-10 11:04:00,52.6,49.1,30.31,SE,143,0.0,0.0,88,0.00,,,0.00,LWC V2.00 B2112,2013-03-10 18:04:00,
2013-03-10 11:09:00,53.4,49.9,30.30,SE,142,0.0,0.0,88,0.00,,,0.00,LWC V2.00 B2112,2013-03-10 18:09:00,
2013-03-10 11:15:00,53.8,50.0,30.30,SE,141,0.0,0.0,87,0.00,,,0.00,LWC V2.00 B2112,2013-03-10 18:15:00,
2013-03-10 11:20:00,54.1,49.7,30.30,ESE,111,1.0,2.0,85,0.00,,,0.00,LWC V2.00 B2112,2013-03-10 18:20:00,
2013-03-10 11:25:00,54.3,49.6,30.30,ESE,114,2.0,2.0,84,0.00,,,0.00,LWC V2.00 B2112,2013-03-10 18:25:00,
2013-03-10 11:30:00,54.7,49.6,30.30,SE,141,1.0,2.0,83,0.00,,,0.00,LWC V2.00 B2112,2013-03-10 18:30:00,
2013-03-10 11:35:00,55.4,50.3,30.30,NE,37,1.0,1.0,83,0.00,,,0.00,LWC V2.00 B2112,2013-03-10 18:35:00,
2013-03-10 11:40:00,56.5,50.7,30.30,ENE,70,1.0,2.0,81,0.00,,,0.00,LWC V2.00 B2112,2013-03-10 18:40:00,
2013-03-10 11:45:00,57.0,50.9,30.30,ESE,117,0.0,1.0,80,0.00,,,0.00,LWC V2.00 B2112,2013-03-10 18:45:00,
2013-03-10 11:50:00,57.2,51.4,30.30,ESE,117,0.0,0.0,81,0.00,,,0.00,LWC V2.00 B2112,2013-03-10 18:50:00,
2013-03-10 11:55:00,57.8,51.7,30.30,ESE,120,0.0,2.0,80,0.00,,,0.00,LWC V2.00 B2112,2013-03-10 18:55:00,
2013-03-10 12:00:00,58.6,51.8,30.29,ESE,109,0.0,1.0,78,0.00,,,0.00,LWC V2.00 B2112,2013-03-10 19:00:00,
2013-03-10 12:05:00,58.6,51.1,30.29,ESE,115,0.0,0.0,76,0.00,,,0.00,LWC V2.00 B2112,2013-03-10 19:05:00,
2013-03-10 12:10:00,59.0,52.1,30.29,ESE,115,0.0,2.0,78,0.00,,,0.00,LWC V2.00 B2112,2013-03-10 19:10:00,
2013-03-10 12:15:00,59.3,52.8,30.29,SE,127,0.0,1.0,79,0.00,,,0.00,LWC V2.00 B2112,2013-03-10 19:15:00,
2013-03-10 12:20:00,59.3,53.1,30.29,East,96,2.0,3.0,80,0.00,,,0.00,LWC V2.00 B2112,2013-03-10 19:20:00,
2013-03-10 12:25:00,59.9,53.4,30.28,ESE,105,1.0,2.0,79,0.00,,,0.00,LWC V2.00 B2112,2013-03-10 19:25:00,
2013-03-10 12:30:00,59.5,53.3,30.28,ESE,108,2.0,3.0,80,0.00,,,0.00,LWC V2.00 B2112,2013-03-10 19:30:00,
2013-03-10 12:35:00,59.8,52.9,30.28,East,81,4.0,4.0,78,0.00,,,0.00,LWC V2.00 B2112,2013-03-10 19:35:00,
2013-03-10 12:40:00,60.6,53.3,30.28,ESE,106,2.0,3.0,77,0.00,,,0.00,LWC V2.00 B2112,2013-03-10 19:40:00,
2013-03-10 12:45:00,60.6,53.3,30.28,NE,54,3.0,3.0,77,0.00,,,0.00,LWC V2.00 B2112,2013-03-10 19:45:00,
2013-03-10 12:46:00,60.7,52.7,30.28,SE,139,0.0,5.0,75,0.00,,,0.00,LWC V2.00 B2112,2013-03-10 19:46:00,
2013-03-10 12:51:00,60.7,52.4,30.28,East,87,6.0,7.0,74,0.00,,,0.00,LWC V2.00 B2112,2013-03-10 19:51:00,
2013-03-10 12:56:00,60.0,51.7,30.28,ESE,120,2.0,3.0,74,0.00,,,0.00,LWC V2.00 B2112,2013-03-10 19:56:00,
2013-03-10 13:01:00,60.0,51.7,30.28,ESE,110,1.0,2.0,74,0.00,,,0.00,LWC V2.00 B2112,2013-03-10 20:01:00,
2013-03-10 13:06:00,60.2,51.5,30.28,ESE,121,1.0,4.0,73,0.00,,,0.00,LWC V2.00 B2112,2013-03-10 20:06:00,
2013-03-10 13:11:00,60.1,51.8,30.28,SE,139,2.0,6.0,74,0.00,,,0.00,LWC V2.00 B2112,2013-03-10 20:11:00,
2013-03-10 13:16:00,59.9,51.6,30.28,SE,128,2.0,2.0,74,0.00,,,0.00,LWC V2.00 B2112,2013-03-10 20:16:00,
2013-03-10 13:21:00,59.9,52.0,30.28,ESE,121,1.0,1.0,75,0.00,,,0.00,LWC V2.00 B2112,2013-03-10 20:21:00,
2013-03-10 13:26:00,59.6,51.7,30.27,ESE,113,1.0,4.0,75,0.00,,,0.00,LWC V2.00 B2112,2013-03-10 20:26:00,
2013-03-10 13:31:00,59.9,51.6,30.27,SSE,159,1.0,4.0,74,0.00,,,0.00,LWC V2.00 B2112,2013-03-10 20:31:00,
2013-03-10 13:36:00,60.1,51.8,30.27,SSE,151,1.0,3.0,74,0.00,,,0.00,LWC V2.00 B2112,2013-03-10 20:36:00,
2013-03-10 13:41:00,60.3,51.6,30.27,South,177,5.0,7.0,73,0.00,,,0.00,LWC V2.00 B2112,2013-03-10 20:41:00,
2013-03-10 13:46:00,60.4,51.7,30.26,ESE,103,2.0,2.0,73,0.00,,,0.00,LWC V2.00 B2112,2013-03-10 20:46:00,
2013-03-10 13:51:00,60.5,51.4,30.26,ESE,109,3.0,4.0,72,0.00,,,0.00,LWC V2.00 B2112,2013-03-10 20:51:00,
2013-03-10 13:56:00,60.7,50.9,30.26,East,81,3.0,5.0,70,0.00,,,0.00,LWC V2.00 B2112,2013-03-10 20:56:00,
2013-03-10 14:01:00,61.2,50.9,30.26,ESE,123,5.0,5.0,69,0.00,,,0.00,LWC V2.00 B2112,2013-03-10 21:01:00,
2013-03-10 14:06:00,61.2,49.7,30.26,ESE,105,2.0,3.0,66,0.00,,,0.00,LWC V2.00 B2112,2013-03-10 21:06:00,
2013-03-10 14:11:00,61.3,50.2,30.26,SE,134,1.0,2.0,67,0.00,,,0.00,LWC V2.00 B2112,2013-03-10 21:11:00,
2013-03-10 14:16:00,61.8,51.1,30.25,ESE,105,2.0,3.0,68,0.00,,,0.00,LWC V2.00 B2112,2013-03-10 21:16:00,
2013-03-10 14:21:00,61.1,51.6,30.25,SE,124,0.0,3.0,71,0.00,,,0.00,LWC V2.00 B2112,2013-03-10 21:21:00,
2013-03-10 14:26:00,61.4,50.7,30.25,SSW,197,2.0,3.0,68,0.00,,,0.00,LWC V2.00 B2112,2013-03-10 21:26:00,
2013-03-10 14:31:00,62.2,50.7,30.25,SSE,162,0.0,1.0,66,0.00,,,0.00,LWC V2.00 B2112,2013-03-10 21:31:00,
2013-03-10 14:36:00,62.0,51.3,30.25,East,92,1.0,3.0,68,0.00,,,0.00,LWC V2.00 B2112,2013-03-10 21:36:00,
2013-03-10 14:41:00,61.6,50.9,30.25,ESE,106,1.0,1.0,68,0.00,,,0.00,LWC V2.00 B2112,2013-03-10 21:41:00,
2013-03-10 14:46:00,61.6,50.1,30.25,ESE,103,1.0,5.0,66,0.00,,,0.00,LWC V2.00 B2112,2013-03-10 21:46:00,
2013-03-10 14:51:00,62.0,50.1,30.24,NW,309,3.0,3.0,65,0.00,,,0.00,LWC V2.00 B2112,2013-03-10 21:51:00,
2013-03-10 14:56:00,62.7,48.2,30.24,NNW,332,4.0,5.0,59,0.00,,,0.00,LWC V2.00 B2112,2013-03-10 21:56:00,
2013-03-10 15:01:00,63.2,47.7,30.24,East,95,1.0,4.0,57,0.00,,,0.00,LWC V2.00 B2112,2013-03-10 22:01:00,
2013-03-10 15:06:00,63.2,47.7,30.24,SE,145,2.0,3.0,57,0.00,,,0.00,LWC V2.00 B2112,2013-03-10 22:06:00,
2013-03-10 15:11:00,62.6,48.1,30.24,East,96,1.0,3.0,59,0.00,,,0.00,LWC V2.00 B2112,2013-03-10 22:11:00,
2013-03-10 15:16:00,62.8,50.4,30.25,SSW,211,0.0,2.0,64,0.00,,,0.00,LWC V2.00 B2112,2013-03-10 22:16:00,
2013-03-10 15:21:00,63.0,46.6,30.25,SSE,157,0.0,2.0,55,0.00,,,0.00,LWC V2.00 B2112,2013-03-10 22:21:00,
2013-03-10 15:26:00,63.7,47.2,30.25,SE,127,0.0,0.0,55,0.00,,,0.00,LWC V2.00 B2112,2013-03-10 22:26:00,
2013-03-10 15:31:00,64.3,48.3,30.24,ENE,58,1.0,4.0,56,0.00,,,0.00,LWC V2.00 B2112,2013-03-10 22:31:00,
2013-03-10 15:36:00,64.0,47.5,30.25,North,6,0.0,3.0,55,0.00,,,0.00,LWC V2.00 B2112,2013-03-10 22:36:00,
2013-03-10 15:41:00,63.8,46.3,30.25,NNW,327,2.0,3.0,53,0.00,,,0.00,LWC V2.00 B2112,2013-03-10 22:41:00,
2013-03-10 15:46:00,63.9,43.8,30.25,East,101,1.0,4.0,48,0.00,,,0.00,LWC V2.00 B2112,2013-03-10 22:46:00,
2013-03-10 15:51:00,64.0,46.0,30.24,SSW,198,0.0,3.0,52,0.00,,,0.00,LWC V2.00 B2112,2013-03-10 22:51:00,
2013-03-10 15:56:00,63.6,45.1,30.25,SW,229,0.0,0.0,51,0.00,,,0.00,LWC V2.00 B2112,2013-03-10 22:56:00,
2013-03-10 16:01:00,63.0,48.4,30.24,ENE,78,0.0,2.0,59,0.00,,,0.00,LWC V2.00 B2112,2013-03-10 23:01:00,
2013-03-10 16:06:00,62.1,48.9,30.25,ESE,109,2.0,5.0,62,0.00,,,0.00,LWC V2.00 B2112,2013-03-10 23:06:00,
2013-03-10 16:11:00,60.9,48.2,30.24,NE,48,1.0,5.0,63,0.00,,,0.00,LWC V2.00 B2112,2013-03-10 23:11:00,
2013-03-10 16:16:00,60.0,48.2,30.24,SSE,155,0.0,2.0,65,0.00,,,0.00,LWC V2.00 B2112,2013-03-10 23:16:00,
2013-03-10 16:21:00,59.3,49.5,30.24,South,170,1.0,2.0,70,0.00,,,0.00,LWC V2.00 B2112,2013-03-10 23:21:00,
2013-03-10 16:26:00,58.5,49.1,30.24,WSW,252,0.0,3.0,71,0.00,,,0.00,LWC V2.00 B2112,2013-03-10 23:26:00,
2013-03-10 16:31:00,58.0,49.0,30.24,NNE,12,0.0,3.0,72,0.00,,,0.00,LWC V2.00 B2112,2013-03-10 23:31:00,
2013-03-10 16:36:00,57.9,49.3,30.24,NNW,337,3.0,4.0,73,0.00,,,0.00,LWC V2.00 B2112,2013-03-10 23:36:00,
2013-03-10 16:41:00,57.8,49.2,30.24,NNW,329,3.0,4.0,73,0.00,,,0.00,LWC V2.00 B2112,2013-03-10 23:41:00,
2013-03-10 16:46:00,57.6,49.4,30.24,NNW,328,0.0,3.0,74,0.00,,,0.00,LWC V2.00 B2112,2013-03-10 23:46:00,
2013-03-10 16:51:00,57.5,49.6,30.23,SSW,210,1.0,3.0,75,0.00,,,0.00,LWC V2.00 B2112,2013-03-10 23:51:00,
2013-03-10 16:56:00,57.6,49.7,30.23,ENE,65,0.0,2.0,75,0.00,,,0.00,LWC V2.00 B2112,2013-03-10 23:56:00,
2013-03-10 17:01:00,57.4,49.9,30.23,South,174,0.0,1.0,76,0.00,,,0.00,LWC V2.00 B2112,2013-03-11 00:01:00,
2013-03-10 17:06:00,57.1,50.0,30.23,NW,319,1.0,1.0,77,0.00,,,0.00,LWC V2.00 B2112,2013-03-11 00:06:00,
2013-03-10 17:11:00,56.9,50.5,30.23,NE,39,1.0,2.0,79,0.00,,,0.00,LWC V2.00 B2112,2013-03-11 00:11:00,
2013-03-10 17:16:00,56.7,50.3,30.23,SSE,153,0.0,0.0,79,0.00,,,0.00,LWC V2.00 B2112,2013-03-11 00:16:00,
2013-03-10 17:21:00,56.3,50.2,30.23,SSW,208,0.0,2.0,80,0.00,,,0.00,LWC V2.00 B2112,2013-03-11 00:21:00,
2013-03-10 17:26:00,56.0,49.6,30.23,East,88,0.0,1.0,79,0.00,,,0.00,LWC V2.00 B2112,2013-03-11 00:26:00,
2013-03-10 17:31:00,55.6,49.5,30.23,SE,127,0.0,1.0,80,0.00,,,0.00,LWC V2.00 B2112,2013-03-11 00:31:00,
2013-03-10 17:36:00,55.1,49.0,30.23,SSW,193,2.0,3.0,80,0.00,,,0.00,LWC V2.00 B2112,2013-03-11 00:36:00,
2013-03-10 17:41:00,54.5,48.8,30.23,NNE,26,0.0,0.0,81,0.00,,,0.00,LWC V2.00 B2112,2013-03-11 00:41:00,
2013-03-10 17:46:00,54.1,48.7,30.23,NNE,19,0.0,1.0,82,0.00,,,0.00,LWC V2.00 B2112,2013-03-11 00:46:00,
2013-03-10 17:51:00,53.6,48.2,30.23,West,263,1.0,1.0,82,0.00,,,0.00,LWC V2.00 B2112,2013-03-11 00:51:00,
2013-03-10 17:56:00,53.0,48.0,30.24,SSW,198,3.0,4.0,83,0.00,,,0.00,LWC V2.00 B2112,2013-03-11 00:56:00,
2013-03-10 18:01:00,52.5,47.8,30.24,NNE,25,1.0,2.0,84,0.00,,,0.00,LWC V2.00 B2112,2013-03-11 01:01:00,
2013-03-10 18:06:00,52.0,47.3,30.24,NW,326,1.0,5.0,84,0.00,,,0.00,LWC V2.00 B2112,2013-03-11 01:06:00,
2013-03-10 18:11:00,51.7,47.3,30.24,NE,37,0.0,1.0,85,0.00,,,0.00,LWC V2.00 B2112,2013-03-11 01:11:00,
2013-03-10 18:16:00,51.4,47.4,30.24,North,4,1.0,1.0,86,0.00,,,0.00,LWC V2.00 B2112,2013-03-11 01:16:00,
2013-03-10 18:21:00,51.1,47.1,30.24,NE,50,0.0,2.0,86,0.00,,,0.00,LWC V2.00 B2112,2013-03-11 01:21:00,
2013-03-10 18:26:00,50.8,47.1,30.24,East,81,1.0,1.0,87,0.00,,,0.00,LWC V2.00 B2112,2013-03-11 01:26:00,
2013-03-10 18:31:00,50.5,46.8,30.24,East,96,0.0,1.0,87,0.00,,,0.00,LWC V2.00 B2112,2013-03-11 01:31:00,
2013-03-10 18:36:00,50.3,46.9,30.24,ESE,102,0.0,2.0,88,0.00,,,0.00,LWC V2.00 B2112,2013-03-11 01:36:00,
2013-03-10 18:41:00,50.0,46.6,30.24,South,173,1.0,2.0,88,0.00,,,0.00,LWC V2.00 B2112,2013-03-11 01:41:00,
2013-03-10 18:46:00,49.9,46.8,30.24,ESE,109,0.0,3.0,89,0.00,,,0.00,LWC V2.00 B2112,2013-03-11 01:46:00,
2013-03-10 18:51:00,49.7,46.6,30.25,East,92,1.0,3.0,89,0.00,,,0.00,LWC V2.00 B2112,2013-03-11 01:51:00,
2013-03-10 18:56:00,49.6,46.5,30.25,SE,142,0.0,1.0,89,0.00,,,0.00,LWC V2.00 B2112,2013-03-11 01:56:00,
2013-03-10 19:01:00,49.4,46.6,30.25,SE,136,1.0,2.0,90,0.00,,,0.00,LWC V2.00 B2112,2013-03-11 02:01:00,
2013-03-10 19:06:00,49.2,46.4,30.25,SSW,203,0.0,1.0,90,0.00,,,0.00,LWC V2.00 B2112,2013-03-11 02:06:00,
2013-03-10 19:11:00,49.0,46.2,30.25,SSW,203,0.0,0.0,90,0.00,,,0.00,LWC V2.00 B2112,2013-03-11 02:11:00,
2013-03-10 19:16:00,48.7,45.9,30.24,SSW,203,0.0,0.0,90,0.00,,,0.00,LWC V2.00 B2112,2013-03-11 02:16:00,
2013-03-10 19:21:00,48.2,45.4,30.25,SSW,203,0.0,0.0,90,0.00,,,0.00,LWC V2.00 B2112,2013-03-11 02:21:00,
2013-03-10 19:26:00,47.8,45.0,30.25,SSW,203,0.0,0.0,90,0.00,,,0.00,LWC V2.00 B2112,2013-03-11 02:26:00,
2013-03-10 19:31:00,47.4,44.6,30.25,SSW,203,0.0,0.0,90,0.00,,,0.00,LWC V2.00 B2112,2013-03-11 02:31:00,
2013-03-10 19:36:00,47.0,44.5,30.25,SSW,203,0.0,0.0,91,0.00,,,0.00,LWC V2.00 B2112,2013-03-11 02:36:00,
2013-03-10 19:41:00,46.6,44.1,30.25,SSW,203,0.0,0.0,91,0.00,,,0.00,LWC V2.00 B2112,2013-03-11 02:41:00,
2013-03-10 19:46:00,46.2,43.7,30.24,SSW,203,0.0,0.0,91,0.00,,,0.00,LWC V2.00 B2112,2013-03-11 02:46:00,
2013-03-10 19:51:00,45.8,43.3,30.24,SSW,203,0.0,0.0,91,0.00,,,0.00,LWC V2.00 B2112,2013-03-11 02:51:00,
2013-03-10 19:56:00,45.5,43.3,30.24,SSW,203,0.0,0.0,92,0.00,,,0.00,LWC V2.00 B2112,2013-03-11 02:56:00,
2013-03-10 20:01:00,45.2,43.0,30.24,SSW,203,0.0,0.0,92,0.00,,,0.00,LWC V2.00 B2112,2013-03-11 03:01:00,
2013-03-10 20:06:00,44.8,42.6,30.24,SSW,203,0.0,0.0,92,0.00,,,0.00,LWC V2.00 B2112,2013-03-11 03:06:00,
2013-03-10 20:11:00,44.5,42.3,30.24,SSW,203,0.0,0.0,92,0.00,,,0.00,LWC V2.00 B2112,2013-03-11 03:11:00,
2013-03-10 20:16:00,44.2,42.0,30.24,SSW,203,0.0,0.0,92,0.00,,,0.00,LWC V2.00 B2112,2013-03-11 03:16:00,
2013-03-10 20:21:00,43.8,41.6,30.25,SSW,203,0.0,0.0,92,0.00,,,0.00,LWC V2.00 B2112,2013-03-11 03:21:00,
2013-03-10 20:26:00,43.6,41.7,30.25,SSW,203,0.0,0.0,93,0.00,,,0.00,LWC V2.00 B2112,2013-03-11 03:26:00,
2013-03-10 20:31:00,43.4,41.5,30.24,SSW,203,0.0,0.0,93,0.00,,,0.00,LWC V2.00 B2112,2013-03-11 03:31:00,
2013-03-10 20:36:00,43.2,41.3,30.24,SSW,203,0.0,0.0,93,0.00,,,0.00,LWC V2.00 B2112,2013-03-11 03:36:00,
2013-03-10 20:41:00,43.0,41.1,30.24,SSW,203,0.0,0.0,93,0.00,,,0.00,LWC V2.00 B2112,2013-03-11 03:41:00,
2013-03-10 20:46:00,42.8,40.9,30.24,SSW,207,0.0,0.0,93,0.00,,,0.00,LWC V2.00 B2112,2013-03-11 03:46:00,
2013-03-10 20:51:00,42.7,40.8,30.24,SSW,207,0.0,0.0,93,0.00,,,0.00,LWC V2.00 B2112,2013-03-11 03:51:00,
2013-03-10 20:56:00,42.5,40.6,30.24,SSW,207,0.0,0.0,93,0.00,,,0.00,LWC V2.00 B2112,2013-03-11 03:56:00,
2013-03-10 21:00:00,42.4,40.8,30.24,SSW,207,0.0,0.0,94,0.00,,,0.00,LWC V2.00 B2112,2013-03-11 04:00:00,
2013-03-10 21:05:00,42.2,40.6,30.25,SSW,207,0.0,0.0,94,0.00,,,0.00,LWC V2.00 B2112,2013-03-11 04:05:00,
2013-03-10 21:10:00,42.4,40.8,30.24,North,0,0.0,0.0,94,0.00,,,0.00,LWC V2.00 B2112,2013-03-11 04:10:00,
2013-03-10 21:20:00,42.4,40.8,30.24,North,0,0.0,0.0,94,0.00,,,0.00,LWC V2.00 B2112,2013-03-11 04:20:00,
2013-03-10 21:30:00,41.8,40.2,30.24,North,0,0.0,0.0,94,0.00,,,0.00,LWC V2.00 B2112,2013-03-11 04:30:00,
2013-03-10 21:40:00,41.8,40.2,30.24,North,0,0.0,0.0,94,0.00,,,0.00,LWC V2.00 B2112,2013-03-11 04:40:00,
2013-03-10 21:50:00,41.8,40.2,30.24,North,0,0.0,0.0,94,0.00,,,0.00,LWC V2.00 B2112,2013-03-11 04:50:00,
2013-03-10 22:00:00,41.2,39.9,30.25,North,0,0.0,0.0,95,0.00,,,0.00,LWC V2.00 B2112,2013-03-11 05:00:00,
2013-03-10 22:10:00,41.2,39.9,30.25,North,0,0.0,0.0,95,0.00,,,0.00,LWC V2.00 B2112,2013-03-11 05:10:00,
2013-03-10 22:20:00,41.2,39.9,30.25,North,0,0.0,0.0,95,0.00,,,0.00,LWC V2.00 B2112,2013-03-11 05:20:00,
2013-03-10 22:30:00,41.2,39.9,30.25,North,0,0.0,0.0,95,0.00,,,0.00,LWC V2.00 B2112,2013-03-11 05:30:00,
2013-03-10 22:40:00,41.2,39.9,30.25,North,0,0.0,0.0,95,0.00,,,0.00,LWC V2.00 B2112,2013-03-11 05:40:00,
2013-03-10 22:50:00,41.2,39.9,30.25,North,0,0.0,0.0,95,0.00,,,0.00,LWC V2.00 B2112,2013-03-11 05:50:00,
2013-03-10 23:00:00,41.8,40.7,30.25,North,0,0.0,0.0,96,0.00,,,0.00,LWC V2.00 B2112,2013-03-11 06:00:00,
2013-03-10 23:10:00,41.8,40.7,30.25,North,0,0.0,0.0,96,0.00,,,0.00,LWC V2.00 B2112,2013-03-11 06:10:00,
2013-03-10 23:20:00,41.8,40.7,30.25,North,0,0.0,0.0,96,0.00,,,0.00,LWC V2.00 B2112,2013-03-11 06:20:00,
2013-03-10 23:30:00,42.8,41.7,30.24,North,0,0.0,0.0,96,0.00,,,0.00,LWC V2.00 B2112,2013-03-11 06:30:00,
2013-03-10 23:40:00,42.8,41.7,30.24,North,0,0.0,0.0,96,0.00,,,0.00,LWC V2.00 B2112,2013-03-11 06:40:00,
2013-03-10 23:50:00,42.8,41.7,30.24,North,0,0.0,0.0,96,0.00,,,0.00,LWC V2.00 B2112,2013-03-11 06:50:00,